sensor_id;sensor_type;location;lat;lon;timestamp;P1;durP1;ratioP1;P2;durP2;ratioP2
20894;SDS011;10607;42.066;24.742;2023-03-01T00:01:45;9.13;;;6.40;;
20894;SDS011;10607;42.066;24.742;2023-03-01T00:04:10;8.80;;;5.77;;
20894;SDS011;10607;42.066;24.742;2023-03-01T00:06:36;6.67;;;5.70;;
20894;SDS011;10607;42.066;24.742;2023-03-01T00:09:02;8.07;;;5.03;;
20894;SDS011;10607;42.066;24.742;2023-03-01T00:11:28;7.73;;;4.57;;
20894;SDS011;10607;42.066;24.742;2023-03-01T00:13:55;9.33;;;5.43;;
20894;SDS011;10607;42.066;24.742;2023-03-01T00:16:22;11.43;;;5.77;;
20894;SDS011;10607;42.066;24.742;2023-03-01T00:18:47;12.47;;;6.63;;
20894;SDS011;10607;42.066;24.742;2023-03-01T00:21:13;9.63;;;5.33;;
20894;SDS011;10607;42.066;24.742;2023-03-01T00:23:38;13.07;;;7.50;;
20894;SDS011;10607;42.066;24.742;2023-03-01T00:26:08;12.27;;;7.27;;
20894;SDS011;10607;42.066;24.742;2023-03-01T00:28:34;10.13;;;6.30;;
20894;SDS011;10607;42.066;24.742;2023-03-01T00:31:06;10.00;;;5.73;;
20894;SDS011;10607;42.066;24.742;2023-03-01T00:33:31;15.13;;;9.73;;
20894;SDS011;10607;42.066;24.742;2023-03-01T00:36:00;9.57;;;5.93;;
20894;SDS011;10607;42.066;24.742;2023-03-01T00:38:25;7.93;;;6.40;;
20894;SDS011;10607;42.066;24.742;2023-03-01T00:40:50;6.90;;;5.30;;
20894;SDS011;10607;42.066;24.742;2023-03-01T00:43:15;5.23;;;4.73;;
20894;SDS011;10607;42.066;24.742;2023-03-01T00:45:41;5.50;;;4.77;;
20894;SDS011;10607;42.066;24.742;2023-03-01T00:48:06;4.63;;;4.13;;
20894;SDS011;10607;42.066;24.742;2023-03-01T00:50:31;5.00;;;4.50;;
20894;SDS011;10607;42.066;24.742;2023-03-01T00:52:57;5.77;;;4.67;;
20894;SDS011;10607;42.066;24.742;2023-03-01T00:55:22;6.90;;;4.80;;
20894;SDS011;10607;42.066;24.742;2023-03-01T00:57:48;5.07;;;4.57;;
20894;SDS011;10607;42.066;24.742;2023-03-01T01:00:13;5.80;;;4.90;;
20894;SDS011;10607;42.066;24.742;2023-03-01T01:02:40;6.70;;;4.50;;
20894;SDS011;10607;42.066;24.742;2023-03-01T01:05:05;5.23;;;4.67;;
20894;SDS011;10607;42.066;24.742;2023-03-01T01:07:31;5.17;;;4.60;;
20894;SDS011;10607;42.066;24.742;2023-03-01T01:09:56;5.80;;;5.20;;
20894;SDS011;10607;42.066;24.742;2023-03-01T01:12:21;7.40;;;5.53;;
20894;SDS011;10607;42.066;24.742;2023-03-01T01:14:47;5.77;;;4.67;;
20894;SDS011;10607;42.066;24.742;2023-03-01T01:17:12;5.30;;;4.80;;
20894;SDS011;10607;42.066;24.742;2023-03-01T01:19:37;5.97;;;5.03;;
20894;SDS011;10607;42.066;24.742;2023-03-01T01:22:03;5.17;;;4.50;;
20894;SDS011;10607;42.066;24.742;2023-03-01T01:24:28;5.90;;;5.10;;
20894;SDS011;10607;42.066;24.742;2023-03-01T01:26:53;7.53;;;5.70;;
20894;SDS011;10607;42.066;24.742;2023-03-01T01:29:19;7.63;;;5.67;;
20894;SDS011;10607;42.066;24.742;2023-03-01T01:31:44;6.43;;;5.67;;
20894;SDS011;10607;42.066;24.742;2023-03-01T01:34:13;7.73;;;6.40;;
20894;SDS011;10607;42.066;24.742;2023-03-01T01:36:39;9.00;;;7.13;;
20894;SDS011;10607;42.066;24.742;2023-03-01T01:39:04;8.43;;;7.03;;
20894;SDS011;10607;42.066;24.742;2023-03-01T01:41:30;8.37;;;6.73;;
20894;SDS011;10607;42.066;24.742;2023-03-01T01:49:18;9.37;;;8.30;;
20894;SDS011;10607;42.066;24.742;2023-03-01T01:51:45;10.43;;;8.80;;
20894;SDS011;10607;42.066;24.742;2023-03-01T01:54:16;9.33;;;7.97;;
20894;SDS011;10607;42.066;24.742;2023-03-01T01:56:46;9.77;;;7.80;;
20894;SDS011;10607;42.066;24.742;2023-03-01T01:59:12;8.10;;;6.93;;
20894;SDS011;10607;42.066;24.742;2023-03-01T02:01:39;6.73;;;6.00;;
20894;SDS011;10607;42.066;24.742;2023-03-01T02:04:04;8.77;;;5.90;;
20894;SDS011;10607;42.066;24.742;2023-03-01T02:06:32;15.90;;;8.87;;
20894;SDS011;10607;42.066;24.742;2023-03-01T02:09:00;9.67;;;7.20;;
20894;SDS011;10607;42.066;24.742;2023-03-01T02:11:27;6.30;;;5.47;;
20894;SDS011;10607;42.066;24.742;2023-03-01T02:13:52;7.63;;;5.90;;
20894;SDS011;10607;42.066;24.742;2023-03-01T02:16:19;6.30;;;5.20;;
20894;SDS011;10607;42.066;24.742;2023-03-01T02:18:44;4.97;;;4.47;;
20894;SDS011;10607;42.066;24.742;2023-03-01T02:23:35;5.87;;;5.00;;
20894;SDS011;10607;42.066;24.742;2023-03-01T02:28:32;5.90;;;5.07;;
20894;SDS011;10607;42.066;24.742;2023-03-01T02:30:58;6.00;;;5.10;;
20894;SDS011;10607;42.066;24.742;2023-03-01T02:33:42;6.77;;;5.13;;
20894;SDS011;10607;42.066;24.742;2023-03-01T02:36:10;6.17;;;5.57;;
20894;SDS011;10607;42.066;24.742;2023-03-01T02:38:38;7.23;;;5.07;;
20894;SDS011;10607;42.066;24.742;2023-03-01T02:41:03;6.90;;;5.40;;
20894;SDS011;10607;42.066;24.742;2023-03-01T02:43:31;6.57;;;5.20;;
20894;SDS011;10607;42.066;24.742;2023-03-01T02:45:58;8.80;;;5.30;;
20894;SDS011;10607;42.066;24.742;2023-03-01T02:48:24;7.30;;;5.17;;
20894;SDS011;10607;42.066;24.742;2023-03-01T02:50:58;5.30;;;4.70;;
20894;SDS011;10607;42.066;24.742;2023-03-01T02:53:32;11.63;;;6.23;;
20894;SDS011;10607;42.066;24.742;2023-03-01T02:56:00;6.10;;;5.27;;
20894;SDS011;10607;42.066;24.742;2023-03-01T02:58:25;6.73;;;6.00;;
20894;SDS011;10607;42.066;24.742;2023-03-01T03:00:51;6.43;;;5.63;;
20894;SDS011;10607;42.066;24.742;2023-03-01T03:03:16;6.30;;;5.70;;
20894;SDS011;10607;42.066;24.742;2023-03-01T03:05:42;7.87;;;6.50;;
20894;SDS011;10607;42.066;24.742;2023-03-01T03:08:07;7.47;;;6.60;;
20894;SDS011;10607;42.066;24.742;2023-03-01T03:10:35;20.53;;;11.30;;
20894;SDS011;10607;42.066;24.742;2023-03-01T03:13:02;10.63;;;8.67;;
20894;SDS011;10607;42.066;24.742;2023-03-01T03:15:27;9.17;;;7.50;;
20894;SDS011;10607;42.066;24.742;2023-03-01T03:17:53;7.70;;;6.90;;
20894;SDS011;10607;42.066;24.742;2023-03-01T03:20:20;8.67;;;7.10;;
20894;SDS011;10607;42.066;24.742;2023-03-01T03:22:46;7.57;;;6.77;;
20894;SDS011;10607;42.066;24.742;2023-03-01T03:25:12;12.33;;;6.07;;
20894;SDS011;10607;42.066;24.742;2023-03-01T03:27:37;7.53;;;5.57;;
20894;SDS011;10607;42.066;24.742;2023-03-01T03:30:04;7.10;;;6.00;;
20894;SDS011;10607;42.066;24.742;2023-03-01T03:32:33;7.70;;;6.50;;
20894;SDS011;10607;42.066;24.742;2023-03-01T03:35:00;8.50;;;7.00;;
20894;SDS011;10607;42.066;24.742;2023-03-01T03:37:25;7.53;;;6.40;;
20894;SDS011;10607;42.066;24.742;2023-03-01T03:40:09;7.27;;;5.97;;
20894;SDS011;10607;42.066;24.742;2023-03-01T03:42:40;6.63;;;5.27;;
20894;SDS011;10607;42.066;24.742;2023-03-01T03:45:05;5.00;;;4.50;;
20894;SDS011;10607;42.066;24.742;2023-03-01T03:47:31;8.00;;;6.30;;
20894;SDS011;10607;42.066;24.742;2023-03-01T03:49:56;6.23;;;5.53;;
20894;SDS011;10607;42.066;24.742;2023-03-01T03:52:21;7.27;;;5.80;;
20894;SDS011;10607;42.066;24.742;2023-03-01T03:54:46;7.60;;;6.03;;
20894;SDS011;10607;42.066;24.742;2023-03-01T03:57:12;15.10;;;6.23;;
20894;SDS011;10607;42.066;24.742;2023-03-01T03:59:37;22.00;;;7.13;;
20894;SDS011;10607;42.066;24.742;2023-03-01T04:02:02;15.03;;;7.13;;
20894;SDS011;10607;42.066;24.742;2023-03-01T04:04:28;10.33;;;6.47;;
20894;SDS011;10607;42.066;24.742;2023-03-01T04:06:53;12.67;;;7.03;;
20894;SDS011;10607;42.066;24.742;2023-03-01T04:09:18;16.97;;;8.53;;
20894;SDS011;10607;42.066;24.742;2023-03-01T04:11:43;13.10;;;8.90;;
20894;SDS011;10607;42.066;24.742;2023-03-01T04:14:09;50.10;;;10.80;;
20894;SDS011;10607;42.066;24.742;2023-03-01T04:16:34;12.87;;;8.07;;
20894;SDS011;10607;42.066;24.742;2023-03-01T04:18:59;15.03;;;8.83;;
20894;SDS011;10607;42.066;24.742;2023-03-01T04:21:25;21.20;;;7.40;;
20894;SDS011;10607;42.066;24.742;2023-03-01T04:23:51;38.63;;;8.47;;
20894;SDS011;10607;42.066;24.742;2023-03-01T04:26:17;81.80;;;9.93;;
20894;SDS011;10607;42.066;24.742;2023-03-01T04:28:43;20.80;;;6.90;;
20894;SDS011;10607;42.066;24.742;2023-03-01T04:31:14;67.73;;;8.00;;
20894;SDS011;10607;42.066;24.742;2023-03-01T04:33:48;162.73;;;11.27;;
20894;SDS011;10607;42.066;24.742;2023-03-01T04:36:14;111.37;;;9.30;;
20894;SDS011;10607;42.066;24.742;2023-03-01T04:38:40;238.10;;;11.63;;
20894;SDS011;10607;42.066;24.742;2023-03-01T04:41:06;135.53;;;8.60;;
20894;SDS011;10607;42.066;24.742;2023-03-01T04:43:32;123.47;;;8.50;;
20894;SDS011;10607;42.066;24.742;2023-03-01T04:46:03;124.87;;;8.47;;
20894;SDS011;10607;42.066;24.742;2023-03-01T04:48:29;111.10;;;8.13;;
20894;SDS011;10607;42.066;24.742;2023-03-01T04:50:54;145.20;;;9.67;;
20894;SDS011;10607;42.066;24.742;2023-03-01T04:53:19;62.47;;;7.67;;
20894;SDS011;10607;42.066;24.742;2023-03-01T04:55:45;113.73;;;8.23;;
20894;SDS011;10607;42.066;24.742;2023-03-01T04:58:10;78.17;;;14.40;;
20894;SDS011;10607;42.066;24.742;2023-03-01T05:00:35;134.40;;;19.70;;
20894;SDS011;10607;42.066;24.742;2023-03-01T05:03:01;146.43;;;18.90;;
20894;SDS011;10607;42.066;24.742;2023-03-01T05:05:33;132.77;;;16.83;;
20894;SDS011;10607;42.066;24.742;2023-03-01T05:08:00;51.10;;;18.00;;
20894;SDS011;10607;42.066;24.742;2023-03-01T05:10:27;171.87;;;21.33;;
20894;SDS011;10607;42.066;24.742;2023-03-01T05:12:54;219.07;;;26.57;;
20894;SDS011;10607;42.066;24.742;2023-03-01T05:15:19;102.57;;;24.83;;
20894;SDS011;10607;42.066;24.742;2023-03-01T05:17:46;143.43;;;24.87;;
20894;SDS011;10607;42.066;24.742;2023-03-01T05:20:12;164.37;;;26.97;;
20894;SDS011;10607;42.066;24.742;2023-03-01T05:22:37;178.73;;;26.80;;
20894;SDS011;10607;42.066;24.742;2023-03-01T05:25:03;203.67;;;27.37;;
20894;SDS011;10607;42.066;24.742;2023-03-01T05:27:28;88.80;;;17.90;;
20894;SDS011;10607;42.066;24.742;2023-03-01T05:29:54;85.67;;;17.67;;
20894;SDS011;10607;42.066;24.742;2023-03-01T05:32:20;46.53;;;21.10;;
20894;SDS011;10607;42.066;24.742;2023-03-01T05:34:45;30.83;;;19.23;;
20894;SDS011;10607;42.066;24.742;2023-03-01T05:37:11;25.90;;;15.20;;
20894;SDS011;10607;42.066;24.742;2023-03-01T05:39:37;36.63;;;23.60;;
20894;SDS011;10607;42.066;24.742;2023-03-01T05:42:02;26.53;;;16.87;;
20894;SDS011;10607;42.066;24.742;2023-03-01T05:44:28;20.17;;;14.07;;
20894;SDS011;10607;42.066;24.742;2023-03-01T05:46:53;19.00;;;13.93;;
20894;SDS011;10607;42.066;24.742;2023-03-01T05:49:19;29.03;;;20.73;;
20894;SDS011;10607;42.066;24.742;2023-03-01T05:51:48;21.93;;;16.40;;
20894;SDS011;10607;42.066;24.742;2023-03-01T05:54:14;19.73;;;13.73;;
20894;SDS011;10607;42.066;24.742;2023-03-01T05:56:39;24.00;;;18.03;;
20894;SDS011;10607;42.066;24.742;2023-03-01T05:59:05;19.53;;;15.33;;
20894;SDS011;10607;42.066;24.742;2023-03-01T06:01:30;21.53;;;16.43;;
20894;SDS011;10607;42.066;24.742;2023-03-01T06:03:56;27.63;;;19.90;;
20894;SDS011;10607;42.066;24.742;2023-03-01T06:06:21;23.23;;;14.57;;
20894;SDS011;10607;42.066;24.742;2023-03-01T06:08:47;25.97;;;20.57;;
20894;SDS011;10607;42.066;24.742;2023-03-01T06:11:12;60.37;;;36.03;;
20894;SDS011;10607;42.066;24.742;2023-03-01T06:13:37;56.27;;;37.07;;
20894;SDS011;10607;42.066;24.742;2023-03-01T06:16:05;38.57;;;27.47;;
20894;SDS011;10607;42.066;24.742;2023-03-01T06:18:31;32.67;;;22.10;;
20894;SDS011;10607;42.066;24.742;2023-03-01T06:20:56;32.33;;;18.47;;
20894;SDS011;10607;42.066;24.742;2023-03-01T06:23:22;35.40;;;21.67;;
20894;SDS011;10607;42.066;24.742;2023-03-01T06:25:48;36.20;;;23.00;;
20894;SDS011;10607;42.066;24.742;2023-03-01T06:28:13;32.13;;;18.87;;
20894;SDS011;10607;42.066;24.742;2023-03-01T06:30:38;79.33;;;41.83;;
20894;SDS011;10607;42.066;24.742;2023-03-01T06:33:04;45.73;;;25.17;;
20894;SDS011;10607;42.066;24.742;2023-03-01T06:35:29;30.33;;;16.90;;
20894;SDS011;10607;42.066;24.742;2023-03-01T06:37:55;17.67;;;12.60;;
20894;SDS011;10607;42.066;24.742;2023-03-01T06:40:20;25.47;;;19.47;;
20894;SDS011;10607;42.066;24.742;2023-03-01T06:42:47;13.10;;;9.07;;
20894;SDS011;10607;42.066;24.742;2023-03-01T06:45:14;9.40;;;7.20;;
20894;SDS011;10607;42.066;24.742;2023-03-01T06:47:39;9.23;;;8.23;;
20894;SDS011;10607;42.066;24.742;2023-03-01T06:50:04;10.90;;;7.30;;
20894;SDS011;10607;42.066;24.742;2023-03-01T06:52:30;9.20;;;6.43;;
20894;SDS011;10607;42.066;24.742;2023-03-01T06:54:55;8.33;;;6.43;;
20894;SDS011;10607;42.066;24.742;2023-03-01T06:57:21;9.17;;;6.23;;
20894;SDS011;10607;42.066;24.742;2023-03-01T06:59:46;10.27;;;7.80;;
20894;SDS011;10607;42.066;24.742;2023-03-01T07:02:12;10.80;;;8.30;;
20894;SDS011;10607;42.066;24.742;2023-03-01T07:04:38;10.23;;;8.13;;
20894;SDS011;10607;42.066;24.742;2023-03-01T07:07:03;10.90;;;8.33;;
20894;SDS011;10607;42.066;24.742;2023-03-01T07:09:29;12.33;;;8.43;;
20894;SDS011;10607;42.066;24.742;2023-03-01T07:11:54;13.50;;;9.57;;
20894;SDS011;10607;42.066;24.742;2023-03-01T07:14:19;14.87;;;10.43;;
20894;SDS011;10607;42.066;24.742;2023-03-01T07:16:45;18.73;;;11.77;;
20894;SDS011;10607;42.066;24.742;2023-03-01T07:19:10;13.20;;;9.43;;
20894;SDS011;10607;42.066;24.742;2023-03-01T07:21:36;13.07;;;8.70;;
20894;SDS011;10607;42.066;24.742;2023-03-01T07:24:03;14.67;;;10.60;;
20894;SDS011;10607;42.066;24.742;2023-03-01T07:26:29;17.43;;;10.97;;
20894;SDS011;10607;42.066;24.742;2023-03-01T07:28:54;12.27;;;8.70;;
20894;SDS011;10607;42.066;24.742;2023-03-01T07:31:19;13.73;;;8.93;;
20894;SDS011;10607;42.066;24.742;2023-03-01T07:33:45;25.63;;;10.33;;
20894;SDS011;10607;42.066;24.742;2023-03-01T07:36:10;113.23;;;31.03;;
20894;SDS011;10607;42.066;24.742;2023-03-01T07:38:36;37.40;;;12.40;;
20894;SDS011;10607;42.066;24.742;2023-03-01T07:41:02;30.70;;;11.33;;
20894;SDS011;10607;42.066;24.742;2023-03-01T07:43:31;42.50;;;12.47;;
20894;SDS011;10607;42.066;24.742;2023-03-01T07:46:00;51.33;;;15.30;;
20894;SDS011;10607;42.066;24.742;2023-03-01T07:48:25;39.80;;;13.17;;
20894;SDS011;10607;42.066;24.742;2023-03-01T07:50:51;39.67;;;13.23;;
20894;SDS011;10607;42.066;24.742;2023-03-01T07:53:16;39.40;;;14.47;;
20894;SDS011;10607;42.066;24.742;2023-03-01T07:55:41;98.13;;;25.03;;
20894;SDS011;10607;42.066;24.742;2023-03-01T07:58:06;26.47;;;9.60;;
20894;SDS011;10607;42.066;24.742;2023-03-01T08:00:32;30.13;;;10.50;;
20894;SDS011;10607;42.066;24.742;2023-03-01T08:03:00;26.90;;;10.27;;
20894;SDS011;10607;42.066;24.742;2023-03-01T08:05:26;47.23;;;15.63;;
20894;SDS011;10607;42.066;24.742;2023-03-01T08:07:51;19.47;;;8.13;;
20894;SDS011;10607;42.066;24.742;2023-03-01T08:10:16;34.07;;;10.43;;
20894;SDS011;10607;42.066;24.742;2023-03-01T08:12:42;33.07;;;10.17;;
20894;SDS011;10607;42.066;24.742;2023-03-01T08:15:07;58.50;;;16.60;;
20894;SDS011;10607;42.066;24.742;2023-03-01T08:17:33;26.57;;;9.07;;
20894;SDS011;10607;42.066;24.742;2023-03-01T08:19:58;19.00;;;6.07;;
20894;SDS011;10607;42.066;24.742;2023-03-01T08:22:23;48.53;;;12.50;;
20894;SDS011;10607;42.066;24.742;2023-03-01T08:24:49;88.23;;;19.30;;
20894;SDS011;10607;42.066;24.742;2023-03-01T08:27:14;27.80;;;6.83;;
20894;SDS011;10607;42.066;24.742;2023-03-01T08:29:40;91.80;;;19.40;;
20894;SDS011;10607;42.066;24.742;2023-03-01T08:32:05;13.17;;;4.43;;
20894;SDS011;10607;42.066;24.742;2023-03-01T08:34:30;106.93;;;23.80;;
20894;SDS011;10607;42.066;24.742;2023-03-01T08:36:56;22.27;;;7.13;;
20894;SDS011;10607;42.066;24.742;2023-03-01T08:39:21;14.90;;;5.80;;
20894;SDS011;10607;42.066;24.742;2023-03-01T08:41:47;70.23;;;15.63;;
20894;SDS011;10607;42.066;24.742;2023-03-01T08:44:13;20.77;;;7.20;;
20894;SDS011;10607;42.066;24.742;2023-03-01T08:46:39;14.60;;;5.33;;
20894;SDS011;10607;42.066;24.742;2023-03-01T08:49:14;24.10;;;7.17;;
20894;SDS011;10607;42.066;24.742;2023-03-01T08:51:40;53.33;;;12.33;;
20894;SDS011;10607;42.066;24.742;2023-03-01T08:54:07;51.30;;;12.67;;
20894;SDS011;10607;42.066;24.742;2023-03-01T08:56:32;33.97;;;9.27;;
20894;SDS011;10607;42.066;24.742;2023-03-01T08:58:58;15.60;;;5.77;;
20894;SDS011;10607;42.066;24.742;2023-03-01T09:01:24;48.53;;;10.07;;
20894;SDS011;10607;42.066;24.742;2023-03-01T09:03:49;35.30;;;8.27;;
20894;SDS011;10607;42.066;24.742;2023-03-01T09:06:15;7.27;;;3.50;;
20894;SDS011;10607;42.066;24.742;2023-03-01T09:08:45;81.07;;;14.87;;
20894;SDS011;10607;42.066;24.742;2023-03-01T09:11:11;48.27;;;8.57;;
20894;SDS011;10607;42.066;24.742;2023-03-01T09:13:37;12.00;;;4.80;;
20894;SDS011;10607;42.066;24.742;2023-03-01T09:16:03;89.77;;;17.80;;
20894;SDS011;10607;42.066;24.742;2023-03-01T09:18:29;33.13;;;6.80;;
20894;SDS011;10607;42.066;24.742;2023-03-01T09:21:04;33.57;;;6.83;;
20894;SDS011;10607;42.066;24.742;2023-03-01T09:23:32;32.93;;;7.30;;
20894;SDS011;10607;42.066;24.742;2023-03-01T09:25:57;16.50;;;5.37;;
20894;SDS011;10607;42.066;24.742;2023-03-01T09:28:23;32.50;;;8.50;;
20894;SDS011;10607;42.066;24.742;2023-03-01T09:30:48;36.33;;;9.00;;
20894;SDS011;10607;42.066;24.742;2023-03-01T09:33:13;32.43;;;7.57;;
20894;SDS011;10607;42.066;24.742;2023-03-01T09:35:39;10.30;;;4.50;;
20894;SDS011;10607;42.066;24.742;2023-03-01T09:38:10;15.83;;;4.60;;
20894;SDS011;10607;42.066;24.742;2023-03-01T09:40:36;31.40;;;8.17;;
20894;SDS011;10607;42.066;24.742;2023-03-01T09:43:08;21.30;;;7.00;;
20894;SDS011;10607;42.066;24.742;2023-03-01T09:45:39;37.80;;;9.03;;
20894;SDS011;10607;42.066;24.742;2023-03-01T09:48:06;36.60;;;7.83;;
20894;SDS011;10607;42.066;24.742;2023-03-01T09:50:36;67.60;;;13.40;;
20894;SDS011;10607;42.066;24.742;2023-03-01T09:53:09;17.40;;;6.07;;
20894;SDS011;10607;42.066;24.742;2023-03-01T10:00:43;29.83;;;8.20;;
20894;SDS011;10607;42.066;24.742;2023-03-01T10:03:26;19.33;;;7.33;;
20894;SDS011;10607;42.066;24.742;2023-03-01T10:05:59;22.03;;;7.97;;
20894;SDS011;10607;42.066;24.742;2023-03-01T10:10:52;104.67;;;19.93;;
20894;SDS011;10607;42.066;24.742;2023-03-01T10:15:44;15.17;;;9.70;;
20894;SDS011;10607;42.066;24.742;2023-03-01T10:18:12;21.00;;;10.23;;
20894;SDS011;10607;42.066;24.742;2023-03-01T10:23:04;51.73;;;14.43;;
20894;SDS011;10607;42.066;24.742;2023-03-01T10:27:55;26.00;;;9.10;;
20894;SDS011;10607;42.066;24.742;2023-03-01T10:32:53;24.93;;;8.30;;
20894;SDS011;10607;42.066;24.742;2023-03-01T10:35:26;37.63;;;14.70;;
20894;SDS011;10607;42.066;24.742;2023-03-01T10:37:59;25.53;;;10.60;;
20894;SDS011;10607;42.066;24.742;2023-03-01T10:40:28;9.37;;;6.17;;
20894;SDS011;10607;42.066;24.742;2023-03-01T10:42:53;10.40;;;4.57;;
20894;SDS011;10607;42.066;24.742;2023-03-01T10:45:35;29.60;;;10.83;;
20894;SDS011;10607;42.066;24.742;2023-03-01T10:48:12;20.90;;;10.07;;
20894;SDS011;10607;42.066;24.742;2023-03-01T10:50:38;11.03;;;6.30;;
20894;SDS011;10607;42.066;24.742;2023-03-01T10:53:05;20.13;;;10.87;;
20894;SDS011;10607;42.066;24.742;2023-03-01T10:55:40;20.67;;;10.80;;
20894;SDS011;10607;42.066;24.742;2023-03-01T10:58:15;12.17;;;7.87;;
20894;SDS011;10607;42.066;24.742;2023-03-01T11:03:32;8.13;;;5.50;;
20894;SDS011;10607;42.066;24.742;2023-03-01T11:08:36;7.43;;;5.37;;
20894;SDS011;10607;42.066;24.742;2023-03-01T11:11:06;5.10;;;3.80;;
20894;SDS011;10607;42.066;24.742;2023-03-01T11:13:32;4.23;;;3.23;;
20894;SDS011;10607;42.066;24.742;2023-03-01T11:15:58;4.63;;;4.10;;
20894;SDS011;10607;42.066;24.742;2023-03-01T11:18:24;3.97;;;3.53;;
20894;SDS011;10607;42.066;24.742;2023-03-01T11:20:50;4.37;;;3.77;;
20894;SDS011;10607;42.066;24.742;2023-03-01T11:23:16;7.40;;;5.60;;
20894;SDS011;10607;42.066;24.742;2023-03-01T11:25:43;6.93;;;5.07;;
20894;SDS011;10607;42.066;24.742;2023-03-01T11:28:13;48.97;;;33.63;;
20894;SDS011;10607;42.066;24.742;2023-03-01T11:35:55;19.43;;;14.77;;
20894;SDS011;10607;42.066;24.742;2023-03-01T11:38:23;18.13;;;16.23;;
20894;SDS011;10607;42.066;24.742;2023-03-01T11:40:50;20.53;;;13.27;;
20894;SDS011;10607;42.066;24.742;2023-03-01T11:43:52;16.03;;;13.47;;
20894;SDS011;10607;42.066;24.742;2023-03-01T11:46:32;14.77;;;12.30;;
20894;SDS011;10607;42.066;24.742;2023-03-01T11:54:13;9.90;;;6.63;;
20894;SDS011;10607;42.066;24.742;2023-03-01T11:56:45;9.27;;;6.77;;
20894;SDS011;10607;42.066;24.742;2023-03-01T12:04:29;21.20;;;14.90;;
20894;SDS011;10607;42.066;24.742;2023-03-01T12:07:00;18.23;;;14.73;;
20894;SDS011;10607;42.066;24.742;2023-03-01T12:09:39;17.77;;;14.70;;
20894;SDS011;10607;42.066;24.742;2023-03-01T12:17:20;11.30;;;10.00;;
20894;SDS011;10607;42.066;24.742;2023-03-01T12:30:17;11.17;;;9.37;;
20894;SDS011;10607;42.066;24.742;2023-03-01T12:40:33;18.43;;;13.43;;
20894;SDS011;10607;42.066;24.742;2023-03-01T12:50:55;9.93;;;8.03;;
20894;SDS011;10607;42.066;24.742;2023-03-01T12:53:27;8.20;;;6.83;;
20894;SDS011;10607;42.066;24.742;2023-03-01T12:56:01;12.10;;;9.23;;
20894;SDS011;10607;42.066;24.742;2023-03-01T13:11:05;11.93;;;10.00;;
20894;SDS011;10607;42.066;24.742;2023-03-01T13:13:31;12.53;;;9.40;;
20894;SDS011;10607;42.066;24.742;2023-03-01T13:15:56;11.57;;;9.50;;
20894;SDS011;10607;42.066;24.742;2023-03-01T13:23:23;35.03;;;19.73;;
20894;SDS011;10607;42.066;24.742;2023-03-01T13:31:09;31.60;;;16.57;;
20894;SDS011;10607;42.066;24.742;2023-03-01T13:33:41;74.63;;;41.97;;
20894;SDS011;10607;42.066;24.742;2023-03-01T13:36:07;18.33;;;13.47;;
20894;SDS011;10607;42.066;24.742;2023-03-01T13:41:02;20.60;;;14.67;;
20894;SDS011;10607;42.066;24.742;2023-03-01T13:43:29;19.37;;;14.37;;
20894;SDS011;10607;42.066;24.742;2023-03-01T13:45:55;18.37;;;14.67;;
20894;SDS011;10607;42.066;24.742;2023-03-01T13:48:38;20.27;;;14.43;;
20894;SDS011;10607;42.066;24.742;2023-03-01T13:51:05;17.40;;;13.37;;
20894;SDS011;10607;42.066;24.742;2023-03-01T13:53:45;15.33;;;12.17;;
20894;SDS011;10607;42.066;24.742;2023-03-01T13:56:18;16.20;;;13.27;;
20894;SDS011;10607;42.066;24.742;2023-03-01T14:01:20;17.83;;;11.77;;
20894;SDS011;10607;42.066;24.742;2023-03-01T14:03:46;21.27;;;13.83;;
20894;SDS011;10607;42.066;24.742;2023-03-01T14:06:15;15.17;;;11.60;;
20894;SDS011;10607;42.066;24.742;2023-03-01T14:08:43;17.80;;;11.07;;
20894;SDS011;10607;42.066;24.742;2023-03-01T14:16:27;11.53;;;9.33;;
20894;SDS011;10607;42.066;24.742;2023-03-01T14:21:41;95.27;;;33.97;;
20894;SDS011;10607;42.066;24.742;2023-03-01T14:24:13;77.47;;;35.63;;
20894;SDS011;10607;42.066;24.742;2023-03-01T14:26:39;14.00;;;11.03;;
20894;SDS011;10607;42.066;24.742;2023-03-01T14:29:05;27.63;;;15.80;;
20894;SDS011;10607;42.066;24.742;2023-03-01T14:31:32;14.00;;;9.33;;
20894;SDS011;10607;42.066;24.742;2023-03-01T14:33:59;25.90;;;18.27;;
20894;SDS011;10607;42.066;24.742;2023-03-01T14:36:29;23.87;;;16.60;;
20894;SDS011;10607;42.066;24.742;2023-03-01T14:38:54;17.07;;;10.53;;
20894;SDS011;10607;42.066;24.742;2023-03-01T14:41:21;39.20;;;18.80;;
20894;SDS011;10607;42.066;24.742;2023-03-01T14:43:50;47.20;;;18.17;;
20894;SDS011;10607;42.066;24.742;2023-03-01T14:46:19;34.27;;;13.30;;
20894;SDS011;10607;42.066;24.742;2023-03-01T14:48:48;15.07;;;8.23;;
20894;SDS011;10607;42.066;24.742;2023-03-01T14:51:13;108.43;;;29.20;;
20894;SDS011;10607;42.066;24.742;2023-03-01T14:53:38;103.13;;;29.43;;
20894;SDS011;10607;42.066;24.742;2023-03-01T14:56:04;83.27;;;23.80;;
20894;SDS011;10607;42.066;24.742;2023-03-01T14:58:31;162.63;;;40.33;;
20894;SDS011;10607;42.066;24.742;2023-03-01T15:01:00;43.50;;;13.53;;
20894;SDS011;10607;42.066;24.742;2023-03-01T15:05:57;110.30;;;30.87;;
20894;SDS011;10607;42.066;24.742;2023-03-01T15:08:24;47.63;;;17.97;;
20894;SDS011;10607;42.066;24.742;2023-03-01T15:11:00;60.47;;;21.33;;
20894;SDS011;10607;42.066;24.742;2023-03-01T15:13:28;135.33;;;32.07;;
20894;SDS011;10607;42.066;24.742;2023-03-01T15:16:00;51.57;;;15.60;;
20894;SDS011;10607;42.066;24.742;2023-03-01T15:18:28;58.60;;;17.43;;
20894;SDS011;10607;42.066;24.742;2023-03-01T15:20:53;16.63;;;8.60;;
20894;SDS011;10607;42.066;24.742;2023-03-01T15:23:21;40.63;;;13.93;;
20894;SDS011;10607;42.066;24.742;2023-03-01T15:25:47;124.87;;;30.30;;
20894;SDS011;10607;42.066;24.742;2023-03-01T15:28:21;18.77;;;9.70;;
20894;SDS011;10607;42.066;24.742;2023-03-01T15:30:51;14.73;;;9.33;;
20894;SDS011;10607;42.066;24.742;2023-03-01T15:33:34;109.37;;;30.53;;
20894;SDS011;10607;42.066;24.742;2023-03-01T15:36:00;31.90;;;13.07;;
20894;SDS011;10607;42.066;24.742;2023-03-01T15:38:28;38.00;;;13.70;;
20894;SDS011;10607;42.066;24.742;2023-03-01T15:40:54;17.03;;;9.57;;
20894;SDS011;10607;42.066;24.742;2023-03-01T15:46:02;61.07;;;19.10;;
20894;SDS011;10607;42.066;24.742;2023-03-01T15:48:29;46.00;;;18.00;;
20894;SDS011;10607;42.066;24.742;2023-03-01T15:50:58;85.53;;;27.63;;
20894;SDS011;10607;42.066;24.742;2023-03-01T15:53:24;61.13;;;19.17;;
20894;SDS011;10607;42.066;24.742;2023-03-01T15:55:49;75.00;;;20.40;;
20894;SDS011;10607;42.066;24.742;2023-03-01T15:58:22;29.93;;;12.23;;
20894;SDS011;10607;42.066;24.742;2023-03-01T16:00:47;39.30;;;14.63;;
20894;SDS011;10607;42.066;24.742;2023-03-01T16:03:13;13.23;;;8.73;;
20894;SDS011;10607;42.066;24.742;2023-03-01T16:05:39;13.23;;;6.60;;
20894;SDS011;10607;42.066;24.742;2023-03-01T16:08:05;12.00;;;8.00;;
20894;SDS011;10607;42.066;24.742;2023-03-01T16:10:31;31.60;;;10.60;;
20894;SDS011;10607;42.066;24.742;2023-03-01T16:12:56;20.30;;;7.40;;
20894;SDS011;10607;42.066;24.742;2023-03-01T16:15:25;22.60;;;9.67;;
20894;SDS011;10607;42.066;24.742;2023-03-01T16:17:51;80.33;;;24.00;;
20894;SDS011;10607;42.066;24.742;2023-03-01T16:20:17;25.60;;;10.63;;